Lismore, Minnesota
Current Conditions -  °F | °C
As of 6:35 PM on Sunday 25 Jan 2015 (Local Time) from KLYV Reporting Station
Overcast Overcast  
Wind Chill: 32°   Ceiling: 1600
Heat Index: 32°   Visibility: 7mi
Dew Point: 32°   Wind: 3mph
Humidity: 100%   Direction: 220°SW
Pressure: 30.02"   Gusts: NA
Location:  43.75°N, 95.95°W
Report Text: KLYV 260035Z AUTO 22003KT 7SM OVC016 00/00 A3002 RMK AO2
Loading
Personal Weather Stations






























Interactive Weather Map New forecast layout! Learn more

10-Day Weather Forecast

Advertisements
Track Severe Weather on mobile